Time;durP1;ratioP1;P1;durP2;ratioP2;P2;SDS_P1;SDS_P2;PMS_P1;PMS_P2;Temp;Humidity;BMP_temperature;BMP_pressure;BME280_temperature;BME280_humidity;BME280_pressure;Samples;Min_cycle;Max_cycle;Signal;HPM_P1;HPM_P2
2021/05/30 00:00:18;;;;;;;12.00;9.85;;;;;;;8.74;86.47;102687.25;1025953;28;20051;-80
2021/05/30 00:00:51;;;;;;;11.38;10.18;;;;;;;8.72;86.70;102686.25;1023980;29;20051;-80
2021/05/30 00:01:22;;;;;;;13.43;10.60;;;;;;;8.72;86.74;102685.38;1024631;28;20078;-80
2021/05/30 00:01:54;;;;;;;11.32;9.85;;;;;;;8.71;86.88;102692.22;1028824;28;20061;-80
2021/05/30 00:02:26;;;;;;;12.90;10.38;;;;;;;8.70;86.97;102687.00;1028718;28;20058;-80
2021/05/30 00:02:57;;;;;;;11.38;10.27;;;;;;;8.72;86.65;102686.25;1027966;28;20058;-80
2021/05/30 00:03:29;;;;;;;13.70;10.85;;;;;;;8.66;86.87;102685.94;1027811;28;20046;-81
2021/05/30 00:04:00;;;;;;;15.40;11.23;;;;;;;8.60;87.26;102693.38;1024611;28;20052;-80
2021/05/30 00:04:32;;;;;;;12.70;10.60;;;;;;;8.59;87.40;102693.28;1028222;28;20047;-80
2021/05/30 00:05:06;;;;;;;10.80;9.48;;;;;;;8.69;86.93;102693.84;1027962;28;20162;-80
2021/05/30 00:05:38;;;;;;;12.02;10.50;;;;;;;8.66;87.03;102691.09;1028140;28;20062;-80
2021/05/30 00:06:09;;;;;;;12.05;10.23;;;;;;;8.71;87.02;102688.78;1028930;28;20405;-80
2021/05/30 00:06:41;;;;;;;11.98;10.65;;;;;;;8.71;86.17;102683.59;1032081;28;20046;-80
2021/05/30 00:07:13;;;;;;;12.85;11.00;;;;;;;8.73;86.27;102692.31;1027948;28;20522;-80
2021/05/30 00:07:44;;;;;;;12.55;10.45;;;;;;;8.71;86.30;102689.66;1028051;28;20050;-80
2021/05/30 00:08:16;;;;;;;12.68;10.95;;;;;;;8.67;86.42;102689.41;1024711;28;20486;-80
2021/05/30 00:08:48;;;;;;;15.88;10.20;;;;;;;8.67;86.18;102681.66;1024718;28;20172;-80
2021/05/30 00:09:20;;;;;;;13.88;11.27;;;;;;;8.60;86.77;102690.78;1027974;28;20108;-80
2021/05/30 00:09:52;;;;;;;15.20;11.38;;;;;;;8.59;86.90;102698.44;1028455;28;20051;-80
2021/05/30 00:10:26;;;;;;;13.85;11.55;;;;;;;8.60;86.91;102695.06;1031920;28;20050;-80
2021/05/30 00:10:57;;;;;;;13.40;12.00;;;;;;;8.53;87.24;102691.28;1028047;28;20076;-80
2021/05/30 00:11:29;;;;;;;13.35;11.38;;;;;;;8.52;87.50;102696.38;1024840;28;20128;-80
2021/05/30 00:12:20;;;;;;;14.15;11.35;;;;;;;8.57;86.90;102695.81;1024010;29;20055;-79
2021/05/30 00:12:52;;;;;;;14.27;11.38;;;;;;;8.57;87.10;102694.91;1027049;28;20055;-80
2021/05/30 00:13:23;;;;;;;11.88;10.27;;;;;;;8.57;87.40;102695.81;1027815;28;20054;-79
2021/05/30 00:13:56;;;;;;;13.40;11.27;;;;;;;8.54;86.99;102693.03;1024025;29;20408;-80
2021/05/30 00:14:27;;;;;;;14.73;11.57;;;;;;;8.56;86.88;102693.13;1024110;29;20051;-80
2021/05/30 00:14:59;;;;;;;13.48;10.90;;;;;;;8.59;86.91;102698.44;1020705;29;20420;-79
2021/05/30 00:15:30;;;;;;;16.17;11.50;;;;;;;8.55;86.92;102694.81;1024504;28;20051;-80
2021/05/30 00:16:02;;;;;;;13.50;10.52;;;;;;;8.53;87.05;102692.97;1024463;28;20058;-80
2021/05/30 00:16:34;;;;;;;13.48;10.52;;;;;;;8.61;86.63;102700.28;1028551;28;20518;-80
2021/05/30 00:17:05;;;;;;;14.70;11.10;;;;;;;8.56;86.58;102703.44;1028120;28;20055;-80
2021/05/30 00:17:37;;;;;;;15.38;10.90;;;;;;;8.54;86.96;102702.47;1028034;28;20059;-79
2021/05/30 00:18:10;;;;;;;14.15;11.13;;;;;;;8.48;87.00;102708.19;1027381;28;20098;-79
2021/05/30 00:18:41;;;;;;;14.10;10.45;;;;;;;8.49;87.55;102697.94;1024671;28;20047;-79
2021/05/30 00:19:13;;;;;;;12.93;11.48;;;;;;;8.47;87.09;102698.69;1028401;28;20110;-79
2021/05/30 00:19:45;;;;;;;12.43;11.13;;;;;;;8.48;87.12;102700.47;1028377;28;20062;-79
2021/05/30 00:20:16;;;;;;;13.40;10.50;;;;;;;8.53;86.84;102708.44;1027478;28;20063;-80
2021/05/30 00:20:48;;;;;;;13.18;10.40;;;;;;;8.55;86.41;102699.09;1023947;29;20513;-80
2021/05/30 00:21:20;;;;;;;10.80;9.70;;;;;;;8.57;86.07;102702.66;1024216;28;20050;-80
2021/05/30 00:21:51;;;;;;;14.45;11.45;;;;;;;8.45;87.22;102703.78;1023832;29;20072;-80
2021/05/30 00:22:23;;;;;;;13.55;12.15;;;;;;;8.48;86.79;102701.34;1024107;29;20055;-79
2021/05/30 00:22:55;;;;;;;13.38;11.07;;;;;;;8.52;86.46;102701.53;1024078;28;20055;-80
2021/05/30 00:23:26;;;;;;;13.85;11.55;;;;;;;8.51;86.49;102708.38;1024469;28;20116;-80
2021/05/30 00:23:58;;;;;;;14.43;11.15;;;;;;;8.43;87.07;102700.19;1023949;28;20582;-80
2021/05/30 00:24:30;;;;;;;13.75;10.25;;;;;;;8.40;87.12;102704.34;1024585;28;20047;-79
2021/05/30 00:25:02;;;;;;;13.70;11.50;;;;;;;8.41;87.37;102696.66;1024310;28;20077;-80
2021/05/30 00:25:34;;;;;;;13.45;11.25;;;;;;;8.44;87.16;102698.50;1028116;28;20046;-80
2021/05/30 00:26:05;;;;;;;13.27;10.25;;;;;;;8.37;87.48;102693.84;1020930;29;20051;-79
2021/05/30 00:26:37;;;;;;;12.52;10.70;;;;;;;8.38;87.41;102699.06;1020666;29;20427;-79
2021/05/30 00:27:09;;;;;;;12.85;11.07;;;;;;;8.38;87.32;102703.34;1020573;29;20054;-80
2021/05/30 00:27:40;;;;;;;15.02;11.57;;;;;;;8.47;87.10;102701.28;1027066;28;20062;-79
2021/05/30 00:28:12;;;;;;;15.32;11.52;;;;;;;8.39;86.69;102698.25;1031849;28;20057;-80
2021/05/30 00:28:44;;;;;;;11.70;10.50;;;;;;;8.35;86.86;102695.44;1027950;28;20051;-80
2021/05/30 00:29:16;;;;;;;13.32;10.63;;;;;;;8.38;86.76;102698.19;1024096;29;20706;-79
2021/05/30 00:29:47;;;;;;;12.13;10.85;;;;;;;8.35;86.72;102692.84;1024587;28;20047;-80
2021/05/30 00:30:19;;;;;;;16.92;10.95;;;;;;;8.43;87.14;102699.31;1024353;28;20058;-79
2021/05/30 00:30:52;;;;;;;12.98;10.50;;;;;;;8.41;86.61;102690.63;1021334;29;20055;-80
2021/05/30 00:31:24;;;;;;;12.02;10.27;;;;;;;8.33;87.28;102695.31;1020741;29;20195;-79
2021/05/30 00:31:55;;;;;;;12.63;11.27;;;;;;;8.24;87.33;102692.25;1024736;28;20058;-79
2021/05/30 00:32:27;;;;;;;14.00;10.85;;;;;;;8.21;87.77;102690.38;1026181;28;20055;-80
2021/05/30 00:32:58;;;;;;;16.45;11.88;;;;;;;8.22;87.46;102693.84;1024027;29;20051;-80
2021/05/30 00:33:30;;;;;;;13.18;10.68;;;;;;;8.20;87.44;102700.63;1024601;28;20047;-80
2021/05/30 00:34:01;;;;;;;14.32;11.80;;;;;;;8.21;87.54;102686.94;1024524;28;20055;-80
2021/05/30 00:34:33;;;;;;;15.90;11.85;;;;;;;8.23;87.72;102691.38;1027968;28;20050;-80
2021/05/30 00:35:05;;;;;;;14.50;12.05;;;;;;;8.21;87.63;102699.81;1028482;28;20078;-81
2021/05/30 00:35:36;;;;;;;14.32;11.40;;;;;;;8.18;87.51;102702.25;1032161;28;20407;-80
2021/05/30 00:36:08;;;;;;;14.90;11.60;;;;;;;8.12;87.96;102695.06;1027911;28;20058;-80
2021/05/30 00:36:40;;;;;;;16.55;11.32;;;;;;;8.11;87.96;102705.28;1023901;29;20171;-80
2021/05/30 00:37:11;;;;;;;14.35;12.23;;;;;;;8.11;87.70;102693.28;1024353;28;20047;-80
2021/05/30 00:37:43;;;;;;;13.43;11.75;;;;;;;8.02;88.26;102700.50;1024282;28;20519;-79
2021/05/30 00:38:15;;;;;;;16.27;12.80;;;;;;;8.05;88.13;102707.50;1024132;29;20089;-79
2021/05/30 00:38:46;;;;;;;15.20;12.20;;;;;;;8.08;88.01;102698.28;1020397;29;20048;-80
2021/05/30 00:39:18;;;;;;;12.95;11.55;;;;;;;8.12;87.75;102701.91;1020636;29;20054;-79
2021/05/30 00:39:49;;;;;;;12.57;11.15;;;;;;;8.11;87.65;102695.88;1020566;29;20055;-80
2021/05/30 00:40:22;;;;;;;11.90;10.68;;;;;;;8.18;87.77;102704.81;1024475;28;20051;-79
2021/05/30 00:40:53;;;;;;;13.65;11.05;;;;;;;8.21;87.03;102692.97;1027802;28;20406;-81
2021/05/30 00:41:25;;;;;;;14.15;11.40;;;;;;;8.06;87.56;102693.84;1028240;28;20526;-79
2021/05/30 00:41:57;;;;;;;18.70;12.73;;;;;;;8.03;88.27;102696.25;1028339;28;20392;-80
2021/05/30 00:42:28;;;;;;;14.80;11.05;;;;;;;8.09;87.77;102706.88;1032008;28;20042;-79
2021/05/30 00:43:00;;;;;;;14.85;11.65;;;;;;;8.11;87.63;102700.13;1027854;28;20066;-80
2021/05/30 00:43:50;;;;;;;15.10;11.25;;;;;;;8.16;87.29;102699.56;1024451;28;20094;-79
2021/05/30 00:44:26;;;;;;;12.93;11.50;;;;;;;8.19;87.18;102701.44;1023931;29;20067;-79
2021/05/30 00:44:58;;;;;;;14.48;11.55;;;;;;;8.15;87.21;102691.75;1027249;28;20054;-79
2021/05/30 00:45:29;;;;;;;15.70;11.63;;;;;;;8.06;87.38;102699.88;1029510;28;20061;-80
2021/05/30 00:46:01;;;;;;;14.10;12.52;;;;;;;8.05;87.73;102702.34;1027452;28;20050;-80
2021/05/30 00:46:32;;;;;;;14.52;11.80;;;;;;;8.10;87.14;102700.91;1027522;28;20047;-80
2021/05/30 00:47:04;;;;;;;14.13;12.15;;;;;;;8.08;87.35;102689.66;1022324;28;20044;-80
2021/05/30 00:47:35;;;;;;;15.63;11.55;;;;;;;8.08;87.33;102698.28;1024516;28;20130;-80
2021/05/30 00:48:07;;;;;;;15.25;11.88;;;;;;;8.03;87.74;102702.28;1023814;28;20054;-80
2021/05/30 00:48:39;;;;;;;14.43;12.90;;;;;;;8.00;87.90;102702.13;1020448;29;20051;-80
2021/05/30 00:49:11;;;;;;;14.07;11.70;;;;;;;8.00;87.95;102696.97;1023895;29;20535;-80
2021/05/30 00:49:42;;;;;;;15.52;11.40;;;;;;;7.99;87.85;102702.91;1019910;29;20059;-80
2021/05/30 00:50:14;;;;;;;12.30;10.85;;;;;;;8.05;87.66;102700.66;1017852;29;20052;-80
2021/05/30 00:50:45;;;;;;;14.25;12.15;;;;;;;8.05;87.72;102692.03;1023968;29;20047;-79
2021/05/30 00:51:17;;;;;;;13.48;10.75;;;;;;;8.00;87.22;102698.63;1024349;28;20055;-79
2021/05/30 00:51:50;;;;;;;14.32;10.32;;;;;;;8.04;87.11;102695.44;1029564;28;20055;-79
2021/05/30 00:52:21;;;;;;;17.00;12.38;;;;;;;7.91;87.74;102699.91;1031903;28;20057;-80
2021/05/30 00:52:53;;;;;;;15.38;11.90;;;;;;;7.89;87.73;102693.78;1031897;28;20050;-80
2021/05/30 00:53:25;;;;;;;13.07;11.65;;;;;;;7.93;87.84;102700.88;1031810;28;20058;-79
2021/05/30 00:53:56;;;;;;;15.13;11.48;;;;;;;7.94;87.61;102700.09;1032276;28;20054;-80
2021/05/30 00:54:29;;;;;;;13.25;11.95;;;;;;;8.02;87.50;102695.34;1032012;28;20058;-80
2021/05/30 00:55:02;;;;;;;13.18;11.88;;;;;;;8.09;87.41;102696.56;1027935;28;20058;-80
2021/05/30 00:55:34;;;;;;;14.60;12.13;;;;;;;8.07;87.24;102699.06;1027975;28;20046;-80
2021/05/30 00:56:07;;;;;;;16.55;12.88;;;;;;;8.04;87.11;102698.00;1028640;28;20051;-80
2021/05/30 00:56:40;;;;;;;15.50;12.30;;;;;;;7.98;86.93;102703.72;1032847;28;20494;-80
2021/05/30 00:57:12;;;;;;;14.05;11.98;;;;;;;7.94;87.29;102696.59;1036321;28;20502;-80
2021/05/30 00:57:44;;;;;;;17.98;11.55;;;;;;;7.95;87.20;102698.41;1031723;28;20054;-80
2021/05/30 00:58:16;;;;;;;13.65;10.90;;;;;;;8.04;87.49;102701.47;1027896;28;20077;-80
2021/05/30 00:58:48;;;;;;;14.88;12.13;;;;;;;8.03;86.98;102701.41;1023849;29;20062;-80
2021/05/30 00:59:19;;;;;;;15.52;11.45;;;;;;;8.01;87.41;102700.44;1024447;28;20058;-80
2021/05/30 00:59:50;;;;;;;14.18;11.82;;;;;;;8.04;86.68;102700.59;1024312;28;20504;-80
2021/05/30 01:00:25;;;;;;;12.70;11.23;;;;;;;8.04;86.56;102695.44;1027776;28;20061;-79
2021/05/30 01:00:57;;;;;;;15.60;12.63;;;;;;;8.02;86.82;102692.78;1027957;28;20055;-79
2021/05/30 01:01:28;;;;;;;16.98;12.05;;;;;;;8.01;86.92;102697.84;1028109;28;20047;-80
2021/05/30 01:02:00;;;;;;;15.88;12.55;;;;;;;7.91;87.21;102699.91;1028134;28;20053;-80
2021/05/30 01:02:31;;;;;;;13.95;12.18;;;;;;;7.83;87.76;102693.47;1032019;28;20050;-80
2021/05/30 01:03:03;;;;;;;14.70;12.15;;;;;;;7.89;87.43;102698.94;1027715;28;20050;-79
2021/05/30 01:03:39;;;;;;;13.93;11.55;;;;;;;7.86;87.41;102703.03;1027695;28;20058;-79
2021/05/30 01:04:11;;;;;;;13.95;12.48;;;;;;;7.78;87.60;102705.19;1029000;28;20091;-79
2021/05/30 01:04:42;;;;;;;16.30;11.85;;;;;;;7.79;87.77;102703.50;1027981;28;20058;-80
2021/05/30 01:05:14;;;;;;;13.25;11.77;;;;;;;7.78;87.79;102705.19;1023744;28;20066;-79
2021/05/30 01:05:47;;;;;;;20.40;13.02;;;;;;;7.76;87.83;102698.16;1020322;29;20055;-79
2021/05/30 01:06:18;;;;;;;14.05;12.40;;;;;;;7.77;87.78;102708.56;1024391;28;20514;-79
2021/05/30 01:06:54;;;;;;;14.18;12.35;;;;;;;7.76;87.99;102703.31;1028406;28;20062;-79
2021/05/30 01:07:26;;;;;;;15.05;12.80;;;;;;;7.71;88.08;102700.47;1027881;28;20058;-80
2021/05/30 01:07:57;;;;;;;14.45;11.95;;;;;;;7.72;88.27;102702.28;1024687;28;20047;-79
2021/05/30 01:08:29;;;;;;;15.02;12.88;;;;;;;7.74;87.73;102704.94;1023827;29;20058;-79
2021/05/30 01:09:03;;;;;;;13.70;12.13;;;;;;;7.67;87.92;102699.44;1024410;28;20047;-80
2021/05/30 01:09:35;;;;;;;17.58;12.65;;;;;;;7.63;88.46;102704.31;1028475;28;20518;-80
2021/05/30 01:10:34;;;;;;;15.25;12.02;;;;;;;7.67;88.55;102708.84;1027943;28;20403;-79
2021/05/30 01:11:14;;;;;;;16.58;13.25;;;;;;;7.66;88.24;102707.09;1031972;28;20047;-79
2021/05/30 01:11:46;;;;;;;17.95;12.23;;;;;;;7.72;88.13;102706.53;1030101;28;20063;-80
2021/05/30 01:12:19;;;;;;;15.15;11.95;;;;;;;7.72;88.30;102697.13;1031950;28;20541;-79
2021/05/30 01:12:51;;;;;;;14.60;11.38;;;;;;;7.67;88.08;102698.56;1027730;28;20050;-79
2021/05/30 01:13:24;;;;;;;15.40;12.98;;;;;;;7.64;88.12;102698.38;1027979;28;20122;-79
2021/05/30 01:13:58;;;;;;;16.17;13.15;;;;;;;7.64;88.12;102695.78;1028620;28;20050;-79
2021/05/30 01:14:29;;;;;;;14.60;13.07;;;;;;;7.60;88.05;102701.56;1031713;28;20057;-79
2021/05/30 01:15:01;;;;;;;17.10;13.23;;;;;;;7.55;88.36;102706.47;1031813;28;20410;-79
2021/05/30 01:15:33;;;;;;;14.38;12.20;;;;;;;7.51;88.37;102696.78;1027857;28;20065;-79
2021/05/30 01:16:06;;;;;;;16.33;12.43;;;;;;;7.55;88.70;102703.00;1024231;28;20050;-80
2021/05/30 01:16:38;;;;;;;16.95;13.18;;;;;;;7.51;88.39;102696.78;1019774;29;20055;-79
2021/05/30 01:17:10;;;;;;;15.45;12.75;;;;;;;7.52;88.86;102701.13;1020743;29;20138;-79
2021/05/30 01:17:43;;;;;;;19.30;14.02;;;;;;;7.44;88.91;102698.13;1024880;28;20507;-80
2021/05/30 01:18:19;;;;;;;15.05;12.55;;;;;;;7.41;89.02;102699.63;1027786;28;20062;-79
2021/05/30 01:18:53;;;;;;;15.55;12.93;;;;;;;7.48;88.85;102690.56;1023868;29;20054;-79
2021/05/30 01:19:30;;;;;;;19.70;13.45;;;;;;;7.46;88.72;102697.31;1024594;28;20063;-80
2021/05/30 01:20:03;;;;;;;15.30;13.15;;;;;;;7.46;88.67;102694.75;1021964;29;20052;-80
2021/05/30 01:20:34;;;;;;;16.67;13.25;;;;;;;7.44;88.62;102692.97;1025465;28;20059;-80
2021/05/30 01:21:06;;;;;;;18.65;13.05;;;;;;;7.42;89.01;102691.09;1028522;28;20054;-80
2021/05/30 01:21:39;;;;;;;16.52;12.50;;;;;;;7.47;88.86;102699.09;1027743;28;20140;-80
2021/05/30 01:22:12;;;;;;;17.63;13.38;;;;;;;7.48;88.65;102701.75;1027839;28;20050;-80
2021/05/30 01:22:45;;;;;;;15.52;13.00;;;;;;;7.48;88.74;102700.84;1027807;28;20055;-80
2021/05/30 01:23:18;;;;;;;17.80;12.23;;;;;;;7.49;88.83;102697.47;1026438;28;20133;-80
2021/05/30 01:23:54;;;;;;;18.60;13.85;;;;;;;7.49;88.42;102695.81;1021326;28;20542;-80
2021/05/30 01:24:25;;;;;;;16.20;12.70;;;;;;;7.48;88.42;102694.00;1027847;28;20050;-80
2021/05/30 01:24:57;;;;;;;18.35;13.82;;;;;;;7.44;88.44;102699.81;1025039;28;20051;-80
2021/05/30 01:25:28;;;;;;;17.55;13.73;;;;;;;7.46;88.46;102698.19;1024834;28;20062;-80
2021/05/30 01:26:00;;;;;;;15.55;12.77;;;;;;;7.41;88.95;102697.94;1023900;29;20047;-80
2021/05/30 01:26:32;;;;;;;18.48;13.50;;;;;;;7.38;88.91;102699.47;1019988;29;20048;-80
2021/05/30 01:27:04;;;;;;;14.63;12.43;;;;;;;7.42;88.37;102699.69;1016281;29;20404;-79
2021/05/30 01:27:37;;;;;;;17.85;13.68;;;;;;;7.44;88.88;102692.09;1018601;29;20052;-80
2021/05/30 01:28:09;;;;;;;15.50;13.23;;;;;;;7.48;88.50;102698.28;1023792;29;20074;-80
2021/05/30 01:28:40;;;;;;;14.88;12.82;;;;;;;7.43;88.62;102692.88;1027755;28;20051;-79
2021/05/30 01:29:12;;;;;;;16.58;13.10;;;;;;;7.41;88.49;102695.34;1027649;28;20410;-79
2021/05/30 01:29:43;;;;;;;13.70;11.85;;;;;;;7.42;88.09;102696.25;1024376;28;20051;-79
2021/05/30 01:30:15;;;;;;;13.48;12.02;;;;;;;7.47;88.35;102697.41;1023723;29;20050;-79
2021/05/30 01:30:47;;;;;;;16.45;12.40;;;;;;;7.41;88.25;102697.94;1023982;29;20074;-80
2021/05/30 01:31:19;;;;;;;17.00;12.93;;;;;;;7.42;88.39;102691.97;1023737;29;20047;-79
2021/05/30 01:31:51;;;;;;;14.63;12.77;;;;;;;7.53;88.29;102699.44;1023874;29;20051;-79
2021/05/30 01:32:23;;;;;;;15.30;11.02;;;;;;;7.55;88.43;102698.75;1024648;28;20058;-80
2021/05/30 01:32:54;;;;;;;15.15;12.30;;;;;;;7.53;87.82;102704.59;1027955;28;20059;-80
2021/05/30 01:33:26;;;;;;;15.35;12.40;;;;;;;7.47;87.76;102691.38;1024094;28;20059;-80
2021/05/30 01:34:00;;;;;;;17.33;12.40;;;;;;;7.37;88.01;102695.09;1022061;29;20047;-79
2021/05/30 01:34:33;;;;;;;12.40;11.10;;;;;;;7.32;87.68;102692.28;1024667;28;20051;-79
2021/05/30 01:35:06;;;;;;;16.88;12.57;;;;;;;7.33;88.07;102694.03;1028854;28;20058;-80
2021/05/30 01:35:37;;;;;;;16.58;12.43;;;;;;;7.34;88.31;102692.34;1027728;28;20047;-80
2021/05/30 01:36:09;;;;;;;15.73;12.90;;;;;;;7.31;88.35;102682.75;1023944;29;20051;-80
2021/05/30 01:36:41;;;;;;;15.52;11.85;;;;;;;7.28;88.51;102685.16;1023873;29;20059;-80
2021/05/30 01:37:12;;;;;;;18.38;12.77;;;;;;;7.29;88.28;102691.19;1024131;28;20062;-80
2021/05/30 01:37:44;;;;;;;16.02;11.90;;;;;;;7.30;88.28;102685.25;1028369;28;20066;-80
2021/05/30 01:38:16;;;;;;;13.30;12.00;;;;;;;7.33;88.04;102690.59;1028394;28;20082;-80
2021/05/30 01:38:47;;;;;;;14.65;12.30;;;;;;;7.32;88.13;102689.69;1027603;28;20534;-80
2021/05/30 01:39:19;;;;;;;13.40;12.07;;;;;;;7.38;87.67;102695.19;1023872;29;20412;-80
2021/05/30 01:39:51;;;;;;;15.77;12.27;;;;;;;7.38;87.99;102689.16;1020592;29;20059;-80
2021/05/30 01:40:25;;;;;;;13.45;12.07;;;;;;;7.34;87.68;102690.66;1024361;28;20051;-80
2021/05/30 01:40:57;;;;;;;14.77;12.40;;;;;;;7.34;87.55;102695.81;1027943;28;20058;-80
2021/05/30 01:41:28;;;;;;;18.58;12.82;;;;;;;7.29;88.13;102691.19;1024657;28;20058;-80
2021/05/30 01:42:00;;;;;;;15.88;12.77;;;;;;;7.29;87.77;102693.78;1023854;28;20518;-81
2021/05/30 01:42:31;;;;;;;17.08;12.70;;;;;;;7.31;87.86;102692.16;1023613;29;20504;-80
2021/05/30 01:43:03;;;;;;;16.00;12.95;;;;;;;7.22;88.21;102691.66;1024204;28;20047;-80
2021/05/30 01:43:34;;;;;;;15.10;13.02;;;;;;;7.19;88.14;102682.03;1024195;28;20055;-80
2021/05/30 01:44:06;;;;;;;19.50;13.25;;;;;;;7.19;88.35;102687.19;1020785;29;20063;-79
2021/05/30 01:44:37;;;;;;;15.75;13.15;;;;;;;7.21;88.06;102685.63;1016357;29;20055;-79
2021/05/30 01:45:10;;;;;;;18.23;13.65;;;;;;;7.14;87.94;102684.34;1019985;29;20052;-79
2021/05/30 01:45:41;;;;;;;16.00;11.80;;;;;;;7.20;88.19;102685.50;1016538;29;20123;-80
2021/05/30 01:46:13;;;;;;;14.98;12.13;;;;;;;7.21;88.49;102685.63;1016438;29;20052;-80
2021/05/30 01:46:44;;;;;;;15.77;12.40;;;;;;;7.22;88.29;102686.50;1016496;29;20048;-79
2021/05/30 01:47:16;;;;;;;15.40;13.27;;;;;;;7.27;87.94;102685.97;1022801;29;20055;-80
2021/05/30 01:47:47;;;;;;;14.32;12.82;;;;;;;7.23;87.90;102681.44;1020279;29;20048;-80
2021/05/30 01:48:19;;;;;;;14.68;12.13;;;;;;;7.25;88.18;102679.81;1020367;29;20067;-79
2021/05/30 01:48:51;;;;;;;16.15;12.40;;;;;;;7.22;87.68;102673.63;1023746;29;20062;-80
2021/05/30 01:49:23;;;;;;;12.75;11.13;;;;;;;7.15;87.70;102683.56;1024404;28;20087;-79
2021/05/30 01:49:54;;;;;;;15.02;12.27;;;;;;;7.17;87.95;102681.06;1028311;28;20103;-80
2021/05/30 01:50:28;;;;;;;15.57;12.50;;;;;;;7.15;88.08;102681.00;1031813;28;20055;-80
2021/05/30 01:51:00;;;;;;;16.65;13.20;;;;;;;7.15;87.92;102680.13;1027819;28;20058;-80
2021/05/30 01:51:32;;;;;;;15.43;12.85;;;;;;;7.19;87.95;102682.03;1024671;28;20431;-80
2021/05/30 01:52:04;;;;;;;15.70;13.35;;;;;;;7.14;88.19;102679.19;1023689;29;20054;-80
2021/05/30 01:52:36;;;;;;;15.27;13.35;;;;;;;7.15;88.09;102682.69;1020548;29;20059;-79
2021/05/30 01:53:10;;;;;;;17.67;13.07;;;;;;;7.11;88.03;102684.19;1023735;29;20512;-80
2021/05/30 01:54:20;;;;;;;21.83;13.80;;;;;;;7.10;88.54;102687.56;1027845;28;20724;-80
2021/05/30 01:54:52;;;;;;;20.17;14.15;;;;;;;7.09;88.24;102683.22;1027881;28;20050;-80
2021/05/30 01:55:41;;;;;;;18.50;12.75;;;;;;;7.11;88.83;102680.72;1030898;28;20055;-80
2021/05/30 01:56:57;;;;;;;15.90;13.45;;;;;;;7.07;88.40;102687.38;1027738;28;20054;-80
2021/05/30 01:57:29;;;;;;;18.83;14.10;;;;;;;7.10;88.30;102687.56;1028590;28;20047;-80
2021/05/30 01:58:01;;;;;;;14.77;13.05;;;;;;;7.10;88.13;102682.41;1026807;28;20424;-80
2021/05/30 01:58:32;;;;;;;16.08;13.60;;;;;;;7.08;88.13;102683.09;1028420;28;20058;-80
2021/05/30 01:59:04;;;;;;;15.75;13.60;;;;;;;7.01;88.19;102676.72;1029121;28;20447;-79
2021/05/30 01:59:38;;;;;;;17.83;13.77;;;;;;;7.06;88.80;102680.44;1028419;28;20050;-80
2021/05/30 02:00:10;;;;;;;16.42;13.75;;;;;;;7.10;88.53;102687.56;1029353;28;20407;-79
2021/05/30 02:00:43;;;;;;;15.90;13.30;;;;;;;7.09;88.03;102683.22;1028530;28;20058;-79
2021/05/30 02:01:15;;;;;;;15.30;13.38;;;;;;;7.04;88.29;102688.88;1029688;28;20057;-80
2021/05/30 02:01:49;;;;;;;16.33;14.35;;;;;;;7.08;88.06;102681.41;1028542;28;20515;-79
2021/05/30 02:02:23;;;;;;;15.48;13.02;;;;;;;7.06;88.09;102682.13;1028425;28;20178;-80
2021/05/30 02:02:56;;;;;;;16.58;13.63;;;;;;;7.14;88.30;102681.78;1029754;28;20062;-80
2021/05/30 02:03:29;;;;;;;17.88;13.52;;;;;;;7.21;87.85;102674.44;1032560;28;20051;-79
2021/05/30 02:04:02;;;;;;;16.00;12.70;;;;;;;7.15;87.69;102673.28;1027180;28;20055;-79
2021/05/30 02:04:40;;;;;;;17.98;13.15;;;;;;;7.08;87.61;102678.84;1020630;29;20052;-80
2021/05/30 02:05:13;;;;;;;16.08;13.50;;;;;;;7.04;88.31;102679.47;1026167;28;20051;-80
2021/05/30 02:05:49;;;;;;;19.60;14.52;;;;;;;7.00;88.09;102679.19;1026284;28;20051;-80
2021/05/30 02:06:21;;;;;;;15.82;13.80;;;;;;;6.98;88.10;102673.06;1030566;28;20058;-79
2021/05/30 02:06:54;;;;;;;16.95;13.52;;;;;;;6.95;88.23;102680.63;1028573;28;20058;-80
2021/05/30 02:07:26;;;;;;;18.38;15.13;;;;;;;6.98;88.48;102676.56;1029458;28;20081;-80
2021/05/30 02:07:59;;;;;;;15.23;13.00;;;;;;;7.03;88.23;102679.38;1028442;28;20051;-80
2021/05/30 02:08:32;;;;;;;17.13;13.82;;;;;;;7.08;87.62;102681.41;1024526;29;20053;-79
2021/05/30 02:09:04;;;;;;;17.05;12.68;;;;;;;7.06;87.88;102684.72;1025424;28;20063;-80
2021/05/30 02:09:37;;;;;;;16.15;12.82;;;;;;;7.08;87.62;102683.09;1028610;28;20530;-79
2021/05/30 02:10:11;;;;;;;16.17;12.43;;;;;;;7.12;87.50;102679.91;1032665;28;20053;-79
2021/05/30 02:10:43;;;;;;;19.00;15.25;;;;;;;7.06;87.88;102682.13;1032757;28;20058;-79
2021/05/30 02:11:15;;;;;;;15.68;12.25;;;;;;;7.06;87.69;102674.41;1028574;28;20057;-79
2021/05/30 02:11:47;;;;;;;18.33;13.10;;;;;;;6.98;87.95;102676.56;1028643;28;20058;-79
2021/05/30 02:12:19;;;;;;;14.57;13.05;;;;;;;6.97;87.58;102679.91;1024460;29;20059;-79
2021/05/30 02:12:53;;;;;;;15.98;13.00;;;;;;;6.94;87.60;102679.72;1024937;28;20047;-80
2021/05/30 02:13:27;;;;;;;17.50;13.18;;;;;;;6.96;87.77;102682.38;1029220;28;20058;-79
2021/05/30 02:14:02;;;;;;;16.25;13.15;;;;;;;6.93;87.31;102677.06;1032671;28;20054;-80
2021/05/30 02:14:34;;;;;;;20.35;14.43;;;;;;;6.89;87.69;102679.44;1029686;28;20043;-79
2021/05/30 02:15:07;;;;;;;17.02;13.98;;;;;;;6.90;87.83;102680.34;1028401;28;20054;-79
2021/05/30 02:15:38;;;;;;;18.40;13.80;;;;;;;6.83;88.29;102676.50;1028464;28;20073;-80
2021/05/30 02:16:10;;;;;;;17.75;13.95;;;;;;;6.82;88.18;102679.88;1028977;28;20426;-80
2021/05/30 02:16:42;;;;;;;18.90;12.98;;;;;;;6.86;88.04;102678.38;1032662;28;20054;-79
2021/05/30 02:17:14;;;;;;;18.50;12.27;;;;;;;6.83;88.07;102673.94;1032553;28;20546;-79
2021/05/30 02:17:45;;;;;;;17.20;13.93;;;;;;;6.83;88.06;102681.66;1028507;28;20055;-80
2021/05/30 02:18:18;;;;;;;18.48;14.15;;;;;;;6.90;88.55;102682.91;1028432;28;20458;-79
2021/05/30 02:18:49;;;;;;;18.00;13.90;;;;;;;6.84;88.36;102680.84;1025109;28;20058;-79
2021/05/30 02:19:21;;;;;;;18.10;12.70;;;;;;;6.82;87.95;102682.47;1028804;28;20503;-80
2021/05/30 02:19:52;;;;;;;17.83;13.52;;;;;;;6.85;87.87;102677.47;1028473;28;20054;-80
2021/05/30 02:20:36;;;;;;;19.60;13.85;;;;;;;6.75;88.33;102676.84;1024530;29;20052;-80
2021/05/30 02:21:07;;;;;;;18.85;13.10;;;;;;;6.79;88.58;102674.53;1020332;29;20054;-80
2021/05/30 02:21:42;;;;;;;15.63;12.65;;;;;;;6.81;88.26;102672.09;1022497;29;20400;-80
2021/05/30 02:22:13;;;;;;;17.50;13.60;;;;;;;6.77;88.27;102677.84;1026810;28;20047;-80
2021/05/30 02:22:45;;;;;;;16.42;13.23;;;;;;;6.72;88.36;102672.41;1027646;28;20055;-79
2021/05/30 02:23:18;;;;;;;18.08;13.85;;;;;;;6.71;88.53;102680.03;1028516;28;20391;-79
2021/05/30 02:23:49;;;;;;;17.13;12.98;;;;;;;6.74;88.64;102667.34;1027635;28;20057;-80
2021/05/30 02:24:22;;;;;;;16.70;13.48;;;;;;;6.77;88.76;102675.25;1022659;29;20480;-79
2021/05/30 02:24:54;;;;;;;17.23;13.80;;;;;;;6.74;88.22;102675.06;1024348;29;20071;-80
2021/05/30 02:25:26;;;;;;;18.33;13.60;;;;;;;6.71;88.29;102669.75;1025055;28;20065;-81
2021/05/30 02:25:57;;;;;;;20.27;13.95;;;;;;;6.74;88.11;102675.06;1022984;28;20059;-79
2021/05/30 02:26:29;;;;;;;17.77;13.98;;;;;;;6.60;88.93;102677.72;1024880;28;20055;-80
2021/05/30 02:27:00;;;;;;;16.15;13.63;;;;;;;6.64;88.08;102681.38;1028424;28;20062;-80
2021/05/30 02:27:32;;;;;;;15.57;13.93;;;;;;;6.70;88.50;102673.13;1032507;28;20054;-80
2021/05/30 02:28:04;;;;;;;17.30;12.73;;;;;;;6.69;88.06;102679.03;1032560;28;20449;-79
2021/05/30 02:28:36;;;;;;;14.90;12.63;;;;;;;6.66;88.24;102671.16;1032538;28;20060;-80
2021/05/30 02:29:09;;;;;;;15.23;12.50;;;;;;;6.64;88.41;102673.66;1028377;28;20046;-80
2021/05/30 02:29:42;;;;;;;13.68;11.95;;;;;;;6.63;88.39;102675.31;1028495;28;20058;-79
2021/05/30 02:30:14;;;;;;;16.08;14.15;;;;;;;6.63;88.49;102672.72;1025401;28;20051;-79
2021/05/30 02:30:46;;;;;;;17.20;12.75;;;;;;;6.64;88.50;102677.09;1029349;28;20054;-79